sensor_id;sensor_type;location;lat;lon;timestamp;P1;durP1;ratioP1;P2;durP2;ratioP2
21239;SDS011;10778;48.962;9.018;2022-10-29T00:00:43;9.27;;;5.32;;
21239;SDS011;10778;48.962;9.018;2022-10-29T00:03:09;10.65;;;5.25;;
21239;SDS011;10778;48.962;9.018;2022-10-29T00:05:35;12.18;;;5.35;;
21239;SDS011;10778;48.962;9.018;2022-10-29T00:08:02;10.02;;;5.00;;
21239;SDS011;10778;48.962;9.018;2022-10-29T00:10:28;9.38;;;4.80;;
21239;SDS011;10778;48.962;9.018;2022-10-29T00:12:54;9.13;;;4.75;;
21239;SDS011;10778;48.962;9.018;2022-10-29T00:15:20;11.00;;;4.75;;
21239;SDS011;10778;48.962;9.018;2022-10-29T00:17:47;10.88;;;5.03;;
21239;SDS011;10778;48.962;9.018;2022-10-29T00:20:13;9.02;;;4.57;;
21239;SDS011;10778;48.962;9.018;2022-10-29T00:22:39;10.80;;;4.93;;
21239;SDS011;10778;48.962;9.018;2022-10-29T00:25:05;11.80;;;4.82;;
21239;SDS011;10778;48.962;9.018;2022-10-29T00:27:31;11.95;;;5.20;;
21239;SDS011;10778;48.962;9.018;2022-10-29T00:29:57;12.57;;;5.30;;
21239;SDS011;10778;48.962;9.018;2022-10-29T00:32:23;11.60;;;4.65;;
21239;SDS011;10778;48.962;9.018;2022-10-29T00:34:49;9.30;;;4.82;;
21239;SDS011;10778;48.962;9.018;2022-10-29T00:37:15;10.07;;;5.05;;
21239;SDS011;10778;48.962;9.018;2022-10-29T00:39:41;10.45;;;5.28;;
21239;SDS011;10778;48.962;9.018;2022-10-29T00:42:12;10.43;;;5.18;;
21239;SDS011;10778;48.962;9.018;2022-10-29T00:44:40;13.52;;;6.50;;
21239;SDS011;10778;48.962;9.018;2022-10-29T00:47:17;12.85;;;5.53;;
21239;SDS011;10778;48.962;9.018;2022-10-29T00:49:52;17.70;;;6.47;;
21239;SDS011;10778;48.962;9.018;2022-10-29T00:52:22;14.45;;;5.65;;
21239;SDS011;10778;48.962;9.018;2022-10-29T00:54:51;11.75;;;5.45;;
21239;SDS011;10778;48.962;9.018;2022-10-29T00:57:26;11.80;;;5.55;;
21239;SDS011;10778;48.962;9.018;2022-10-29T00:59:56;10.55;;;5.65;;
21239;SDS011;10778;48.962;9.018;2022-10-29T01:02:22;12.60;;;5.85;;
21239;SDS011;10778;48.962;9.018;2022-10-29T01:04:49;10.98;;;5.75;;
21239;SDS011;10778;48.962;9.018;2022-10-29T01:07:17;12.48;;;5.65;;
21239;SDS011;10778;48.962;9.018;2022-10-29T01:09:43;12.48;;;5.78;;
21239;SDS011;10778;48.962;9.018;2022-10-29T01:15:15;8.60;;;4.90;;
21239;SDS011;10778;48.962;9.018;2022-10-29T01:31:48;11.55;;;5.07;;
21239;SDS011;10778;48.962;9.018;2022-10-29T01:34:24;10.95;;;4.75;;
21239;SDS011;10778;48.962;9.018;2022-10-29T01:37:27;10.13;;;5.05;;
21239;SDS011;10778;48.962;9.018;2022-10-29T01:40:06;8.60;;;4.95;;
21239;SDS011;10778;48.962;9.018;2022-10-29T01:43:03;11.50;;;4.95;;
21239;SDS011;10778;48.962;9.018;2022-10-29T01:46:01;13.93;;;5.22;;
21239;SDS011;10778;48.962;9.018;2022-10-29T01:48:34;10.82;;;5.07;;
21239;SDS011;10778;48.962;9.018;2022-10-29T01:51:07;10.60;;;5.15;;
21239;SDS011;10778;48.962;9.018;2022-10-29T01:53:38;12.75;;;5.63;;
21239;SDS011;10778;48.962;9.018;2022-10-29T01:56:05;13.18;;;5.70;;
21239;SDS011;10778;48.962;9.018;2022-10-29T01:58:31;17.67;;;6.28;;
21239;SDS011;10778;48.962;9.018;2022-10-29T02:01:14;12.05;;;5.85;;
21239;SDS011;10778;48.962;9.018;2022-10-29T02:06:43;13.50;;;5.43;;
21239;SDS011;10778;48.962;9.018;2022-10-29T02:11:57;9.07;;;5.18;;
21239;SDS011;10778;48.962;9.018;2022-10-29T02:16:53;13.00;;;5.22;;
21239;SDS011;10778;48.962;9.018;2022-10-29T02:19:20;11.13;;;5.47;;
21239;SDS011;10778;48.962;9.018;2022-10-29T02:21:49;9.00;;;5.00;;
21239;SDS011;10778;48.962;9.018;2022-10-29T02:24:15;10.43;;;4.90;;
21239;SDS011;10778;48.962;9.018;2022-10-29T02:26:41;10.98;;;5.18;;
21239;SDS011;10778;48.962;9.018;2022-10-29T02:29:07;11.40;;;5.10;;
21239;SDS011;10778;48.962;9.018;2022-10-29T02:31:33;10.23;;;5.03;;
21239;SDS011;10778;48.962;9.018;2022-10-29T02:34:00;9.73;;;5.50;;
21239;SDS011;10778;48.962;9.018;2022-10-29T02:36:26;9.82;;;4.25;;
21239;SDS011;10778;48.962;9.018;2022-10-29T02:38:52;12.02;;;4.57;;
21239;SDS011;10778;48.962;9.018;2022-10-29T02:41:18;9.73;;;4.80;;
21239;SDS011;10778;48.962;9.018;2022-10-29T02:43:44;13.75;;;4.80;;
21239;SDS011;10778;48.962;9.018;2022-10-29T02:46:11;6.93;;;3.83;;
21239;SDS011;10778;48.962;9.018;2022-10-29T02:48:44;6.68;;;4.35;;
21239;SDS011;10778;48.962;9.018;2022-10-29T02:51:11;7.75;;;4.03;;
21239;SDS011;10778;48.962;9.018;2022-10-29T02:53:38;9.25;;;4.35;;
21239;SDS011;10778;48.962;9.018;2022-10-29T02:56:05;7.60;;;3.97;;
21239;SDS011;10778;48.962;9.018;2022-10-29T02:58:32;7.70;;;3.90;;
21239;SDS011;10778;48.962;9.018;2022-10-29T03:00:58;10.80;;;4.03;;
21239;SDS011;10778;48.962;9.018;2022-10-29T03:03:24;7.47;;;3.80;;
21239;SDS011;10778;48.962;9.018;2022-10-29T03:05:50;11.13;;;4.20;;
21239;SDS011;10778;48.962;9.018;2022-10-29T03:08:17;8.07;;;4.28;;
21239;SDS011;10778;48.962;9.018;2022-10-29T03:10:43;9.45;;;4.65;;
21239;SDS011;10778;48.962;9.018;2022-10-29T03:13:09;9.25;;;4.05;;
21239;SDS011;10778;48.962;9.018;2022-10-29T03:15:35;9.15;;;4.60;;
21239;SDS011;10778;48.962;9.018;2022-10-29T03:18:02;7.70;;;4.40;;
21239;SDS011;10778;48.962;9.018;2022-10-29T03:20:28;9.85;;;4.05;;
21239;SDS011;10778;48.962;9.018;2022-10-29T03:22:54;9.20;;;4.60;;
21239;SDS011;10778;48.962;9.018;2022-10-29T03:25:20;6.13;;;4.10;;
21239;SDS011;10778;48.962;9.018;2022-10-29T03:27:47;9.98;;;4.97;;
21239;SDS011;10778;48.962;9.018;2022-10-29T03:30:13;6.20;;;4.18;;
21239;SDS011;10778;48.962;9.018;2022-10-29T03:32:41;7.93;;;4.85;;
21239;SDS011;10778;48.962;9.018;2022-10-29T03:35:09;10.07;;;4.60;;
21239;SDS011;10778;48.962;9.018;2022-10-29T03:37:36;7.85;;;4.13;;
21239;SDS011;10778;48.962;9.018;2022-10-29T03:40:02;8.50;;;4.47;;
21239;SDS011;10778;48.962;9.018;2022-10-29T03:42:29;15.27;;;4.90;;
21239;SDS011;10778;48.962;9.018;2022-10-29T03:44:58;11.43;;;4.18;;
21239;SDS011;10778;48.962;9.018;2022-10-29T03:47:26;10.23;;;4.38;;
21239;SDS011;10778;48.962;9.018;2022-10-29T03:49:53;9.27;;;4.35;;
21239;SDS011;10778;48.962;9.018;2022-10-29T03:52:20;9.20;;;4.82;;
21239;SDS011;10778;48.962;9.018;2022-10-29T03:54:46;8.80;;;4.65;;
21239;SDS011;10778;48.962;9.018;2022-10-29T03:57:12;11.25;;;4.50;;
21239;SDS011;10778;48.962;9.018;2022-10-29T03:59:38;8.75;;;4.38;;
21239;SDS011;10778;48.962;9.018;2022-10-29T04:02:04;9.60;;;4.78;;
21239;SDS011;10778;48.962;9.018;2022-10-29T04:04:31;8.98;;;4.03;;
21239;SDS011;10778;48.962;9.018;2022-10-29T04:06:57;10.40;;;4.40;;
21239;SDS011;10778;48.962;9.018;2022-10-29T04:09:22;8.35;;;4.22;;
21239;SDS011;10778;48.962;9.018;2022-10-29T04:11:48;7.88;;;4.43;;
21239;SDS011;10778;48.962;9.018;2022-10-29T04:14:14;8.45;;;4.30;;
21239;SDS011;10778;48.962;9.018;2022-10-29T04:16:40;10.05;;;4.38;;
21239;SDS011;10778;48.962;9.018;2022-10-29T04:19:06;11.93;;;4.93;;
21239;SDS011;10778;48.962;9.018;2022-10-29T04:21:32;13.43;;;5.13;;
21239;SDS011;10778;48.962;9.018;2022-10-29T04:23:58;10.98;;;4.65;;
21239;SDS011;10778;48.962;9.018;2022-10-29T04:26:24;10.85;;;4.57;;
21239;SDS011;10778;48.962;9.018;2022-10-29T04:28:50;8.95;;;4.70;;
21239;SDS011;10778;48.962;9.018;2022-10-29T04:31:17;12.35;;;4.85;;
21239;SDS011;10778;48.962;9.018;2022-10-29T04:33:43;10.05;;;4.30;;
21239;SDS011;10778;48.962;9.018;2022-10-29T04:36:10;10.65;;;4.43;;
21239;SDS011;10778;48.962;9.018;2022-10-29T04:38:37;7.53;;;4.32;;
21239;SDS011;10778;48.962;9.018;2022-10-29T04:41:03;12.63;;;5.03;;
21239;SDS011;10778;48.962;9.018;2022-10-29T04:43:29;8.95;;;4.70;;
21239;SDS011;10778;48.962;9.018;2022-10-29T04:45:57;12.85;;;4.90;;
21239;SDS011;10778;48.962;9.018;2022-10-29T04:48:24;10.52;;;4.57;;
21239;SDS011;10778;48.962;9.018;2022-10-29T04:50:51;10.70;;;4.35;;
21239;SDS011;10778;48.962;9.018;2022-10-29T04:53:18;12.07;;;4.75;;
21239;SDS011;10778;48.962;9.018;2022-10-29T04:55:44;12.80;;;4.78;;
21239;SDS011;10778;48.962;9.018;2022-10-29T04:58:11;11.40;;;4.60;;
21239;SDS011;10778;48.962;9.018;2022-10-29T05:00:42;13.40;;;4.50;;
21239;SDS011;10778;48.962;9.018;2022-10-29T05:03:08;8.27;;;4.35;;
21239;SDS011;10778;48.962;9.018;2022-10-29T05:05:37;12.07;;;4.20;;
21239;SDS011;10778;48.962;9.018;2022-10-29T05:08:05;10.45;;;4.00;;
21239;SDS011;10778;48.962;9.018;2022-10-29T05:10:32;11.25;;;4.78;;
21239;SDS011;10778;48.962;9.018;2022-10-29T05:13:01;15.57;;;6.40;;
21239;SDS011;10778;48.962;9.018;2022-10-29T05:15:28;12.95;;;5.80;;
21239;SDS011;10778;48.962;9.018;2022-10-29T05:17:55;8.80;;;5.70;;
21239;SDS011;10778;48.962;9.018;2022-10-29T05:20:22;11.70;;;5.80;;
21239;SDS011;10778;48.962;9.018;2022-10-29T05:22:49;18.70;;;8.38;;
21239;SDS011;10778;48.962;9.018;2022-10-29T05:25:15;11.95;;;7.65;;
21239;SDS011;10778;48.962;9.018;2022-10-29T05:27:41;12.25;;;6.70;;
21239;SDS011;10778;48.962;9.018;2022-10-29T05:30:07;13.00;;;6.35;;
21239;SDS011;10778;48.962;9.018;2022-10-29T05:32:33;10.25;;;5.95;;
21239;SDS011;10778;48.962;9.018;2022-10-29T05:35:00;13.02;;;6.28;;
21239;SDS011;10778;48.962;9.018;2022-10-29T05:37:26;12.35;;;6.07;;
21239;SDS011;10778;48.962;9.018;2022-10-29T05:39:54;10.70;;;6.07;;
21239;SDS011;10778;48.962;9.018;2022-10-29T05:42:20;10.32;;;5.13;;
21239;SDS011;10778;48.962;9.018;2022-10-29T05:44:46;12.20;;;4.60;;
21239;SDS011;10778;48.962;9.018;2022-10-29T05:47:12;7.90;;;4.95;;
21239;SDS011;10778;48.962;9.018;2022-10-29T05:49:38;10.73;;;5.30;;
21239;SDS011;10778;48.962;9.018;2022-10-29T05:52:04;9.25;;;5.10;;
21239;SDS011;10778;48.962;9.018;2022-10-29T05:54:30;9.85;;;4.88;;
21239;SDS011;10778;48.962;9.018;2022-10-29T05:56:57;7.90;;;4.63;;
21239;SDS011;10778;48.962;9.018;2022-10-29T05:59:23;8.73;;;3.92;;
21239;SDS011;10778;48.962;9.018;2022-10-29T06:01:49;7.03;;;4.10;;
21239;SDS011;10778;48.962;9.018;2022-10-29T06:04:15;11.32;;;3.90;;
21239;SDS011;10778;48.962;9.018;2022-10-29T06:06:41;8.48;;;3.97;;
21239;SDS011;10778;48.962;9.018;2022-10-29T06:09:07;10.38;;;4.07;;
21239;SDS011;10778;48.962;9.018;2022-10-29T06:11:34;8.90;;;4.20;;
21239;SDS011;10778;48.962;9.018;2022-10-29T06:14:00;9.35;;;4.60;;
21239;SDS011;10778;48.962;9.018;2022-10-29T06:16:26;15.23;;;4.78;;
21239;SDS011;10778;48.962;9.018;2022-10-29T06:18:52;8.13;;;4.95;;
21239;SDS011;10778;48.962;9.018;2022-10-29T06:21:18;10.10;;;7.20;;
21239;SDS011;10778;48.962;9.018;2022-10-29T06:23:44;11.40;;;7.35;;
21239;SDS011;10778;48.962;9.018;2022-10-29T06:26:10;10.40;;;6.85;;
21239;SDS011;10778;48.962;9.018;2022-10-29T06:28:36;8.65;;;6.28;;
21239;SDS011;10778;48.962;9.018;2022-10-29T06:31:02;6.93;;;4.68;;
21239;SDS011;10778;48.962;9.018;2022-10-29T06:33:28;9.15;;;4.60;;
21239;SDS011;10778;48.962;9.018;2022-10-29T06:35:57;9.55;;;4.28;;
21239;SDS011;10778;48.962;9.018;2022-10-29T06:38:24;7.35;;;4.30;;
21239;SDS011;10778;48.962;9.018;2022-10-29T06:40:51;10.85;;;4.75;;
21239;SDS011;10778;48.962;9.018;2022-10-29T06:43:20;11.50;;;4.95;;
21239;SDS011;10778;48.962;9.018;2022-10-29T06:45:47;9.32;;;5.18;;
21239;SDS011;10778;48.962;9.018;2022-10-29T06:48:13;8.93;;;4.60;;
21239;SDS011;10778;48.962;9.018;2022-10-29T06:50:40;9.15;;;3.83;;
21239;SDS011;10778;48.962;9.018;2022-10-29T06:53:06;10.45;;;3.70;;
21239;SDS011;10778;48.962;9.018;2022-10-29T06:55:36;6.65;;;3.10;;
21239;SDS011;10778;48.962;9.018;2022-10-29T06:58:03;10.00;;;3.53;;
21239;SDS011;10778;48.962;9.018;2022-10-29T07:00:37;9.13;;;3.58;;
21239;SDS011;10778;48.962;9.018;2022-10-29T07:03:03;10.32;;;3.60;;
21239;SDS011;10778;48.962;9.018;2022-10-29T07:05:30;7.85;;;3.55;;
21239;SDS011;10778;48.962;9.018;2022-10-29T07:07:57;6.60;;;3.90;;
21239;SDS011;10778;48.962;9.018;2022-10-29T07:10:26;6.47;;;3.58;;
21239;SDS011;10778;48.962;9.018;2022-10-29T07:12:53;9.07;;;3.58;;
21239;SDS011;10778;48.962;9.018;2022-10-29T07:15:20;6.32;;;3.42;;
21239;SDS011;10778;48.962;9.018;2022-10-29T07:20:26;10.05;;;3.55;;
21239;SDS011;10778;48.962;9.018;2022-10-29T07:22:54;6.88;;;3.45;;
21239;SDS011;10778;48.962;9.018;2022-10-29T07:25:22;7.53;;;3.50;;
21239;SDS011;10778;48.962;9.018;2022-10-29T07:27:49;9.10;;;3.53;;
21239;SDS011;10778;48.962;9.018;2022-10-29T07:30:15;8.13;;;3.80;;
21239;SDS011;10778;48.962;9.018;2022-10-29T07:32:42;9.82;;;3.60;;
21239;SDS011;10778;48.962;9.018;2022-10-29T07:35:08;7.90;;;3.78;;
21239;SDS011;10778;48.962;9.018;2022-10-29T07:37:34;8.88;;;3.70;;
21239;SDS011;10778;48.962;9.018;2022-10-29T07:40:00;8.40;;;3.90;;
21239;SDS011;10778;48.962;9.018;2022-10-29T07:42:26;7.95;;;3.80;;
21239;SDS011;10778;48.962;9.018;2022-10-29T07:44:52;8.25;;;3.50;;
21239;SDS011;10778;48.962;9.018;2022-10-29T07:47:18;8.10;;;3.90;;
21239;SDS011;10778;48.962;9.018;2022-10-29T07:49:44;7.78;;;4.25;;
21239;SDS011;10778;48.962;9.018;2022-10-29T07:52:10;11.63;;;4.05;;
21239;SDS011;10778;48.962;9.018;2022-10-29T07:54:36;10.43;;;4.40;;
21239;SDS011;10778;48.962;9.018;2022-10-29T07:57:02;9.93;;;4.68;;
21239;SDS011;10778;48.962;9.018;2022-10-29T07:59:29;12.25;;;4.30;;
21239;SDS011;10778;48.962;9.018;2022-10-29T08:01:55;13.82;;;4.82;;
21239;SDS011;10778;48.962;9.018;2022-10-29T08:04:21;9.70;;;4.50;;
21239;SDS011;10778;48.962;9.018;2022-10-29T08:06:47;11.60;;;5.00;;
21239;SDS011;10778;48.962;9.018;2022-10-29T08:09:13;14.30;;;4.80;;
21239;SDS011;10778;48.962;9.018;2022-10-29T08:11:39;10.18;;;5.05;;
21239;SDS011;10778;48.962;9.018;2022-10-29T08:14:05;12.82;;;4.90;;
21239;SDS011;10778;48.962;9.018;2022-10-29T08:16:31;10.07;;;4.20;;
21239;SDS011;10778;48.962;9.018;2022-10-29T08:18:57;11.95;;;5.05;;
21239;SDS011;10778;48.962;9.018;2022-10-29T08:21:23;12.32;;;5.03;;
21239;SDS011;10778;48.962;9.018;2022-10-29T08:23:49;11.35;;;4.40;;
21239;SDS011;10778;48.962;9.018;2022-10-29T08:26:15;12.20;;;4.80;;
21239;SDS011;10778;48.962;9.018;2022-10-29T08:28:41;9.82;;;5.40;;
21239;SDS011;10778;48.962;9.018;2022-10-29T08:31:08;12.65;;;5.43;;
21239;SDS011;10778;48.962;9.018;2022-10-29T08:33:34;12.57;;;6.60;;
21239;SDS011;10778;48.962;9.018;2022-10-29T08:36:00;11.63;;;5.80;;
21239;SDS011;10778;48.962;9.018;2022-10-29T08:38:26;13.77;;;6.47;;
21239;SDS011;10778;48.962;9.018;2022-10-29T08:45:48;13.60;;;6.15;;
21239;SDS011;10778;48.962;9.018;2022-10-29T08:48:21;11.52;;;6.10;;
21239;SDS011;10778;48.962;9.018;2022-10-29T08:50:50;11.68;;;6.70;;
21239;SDS011;10778;48.962;9.018;2022-10-29T08:53:24;12.38;;;6.72;;
21239;SDS011;10778;48.962;9.018;2022-10-29T08:55:57;15.95;;;6.50;;
21239;SDS011;10778;48.962;9.018;2022-10-29T08:58:39;16.08;;;6.18;;
21239;SDS011;10778;48.962;9.018;2022-10-29T09:01:12;16.52;;;5.90;;
21239;SDS011;10778;48.962;9.018;2022-10-29T09:03:39;15.60;;;5.93;;
21239;SDS011;10778;48.962;9.018;2022-10-29T09:06:09;15.40;;;5.88;;
21239;SDS011;10778;48.962;9.018;2022-10-29T09:09:27;12.35;;;5.28;;
21239;SDS011;10778;48.962;9.018;2022-10-29T09:11:40;13.10;;;5.47;;
21239;SDS011;10778;48.962;9.018;2022-10-29T09:16:59;12.13;;;5.68;;
21239;SDS011;10778;48.962;9.018;2022-10-29T09:19:51;14.07;;;5.57;;
21239;SDS011;10778;48.962;9.018;2022-10-29T09:25:13;13.80;;;5.78;;
21239;SDS011;10778;48.962;9.018;2022-10-29T09:30:25;17.40;;;6.18;;
21239;SDS011;10778;48.962;9.018;2022-10-29T09:32:58;14.35;;;5.88;;
21239;SDS011;10778;48.962;9.018;2022-10-29T09:38:17;12.98;;;5.70;;
21239;SDS011;10778;48.962;9.018;2022-10-29T09:40:47;13.55;;;6.40;;
21239;SDS011;10778;48.962;9.018;2022-10-29T09:45:47;15.55;;;6.00;;
21239;SDS011;10778;48.962;9.018;2022-10-29T09:48:29;13.45;;;5.95;;
21239;SDS011;10778;48.962;9.018;2022-10-29T09:53:56;14.25;;;5.75;;
21239;SDS011;10778;48.962;9.018;2022-10-29T09:56:22;15.50;;;6.13;;
21239;SDS011;10778;48.962;9.018;2022-10-29T09:58:51;13.65;;;5.93;;
21239;SDS011;10778;48.962;9.018;2022-10-29T10:01:22;11.15;;;5.70;;
21239;SDS011;10778;48.962;9.018;2022-10-29T10:03:51;13.70;;;5.60;;
21239;SDS011;10778;48.962;9.018;2022-10-29T10:06:20;13.35;;;5.90;;
21239;SDS011;10778;48.962;9.018;2022-10-29T10:09:02;16.60;;;6.45;;
21239;SDS011;10778;48.962;9.018;2022-10-29T10:11:39;14.90;;;6.28;;
21239;SDS011;10778;48.962;9.018;2022-10-29T10:14:17;10.32;;;5.70;;
21239;SDS011;10778;48.962;9.018;2022-10-29T10:16:44;14.63;;;6.03;;
21239;SDS011;10778;48.962;9.018;2022-10-29T10:19:24;13.20;;;5.63;;
21239;SDS011;10778;48.962;9.018;2022-10-29T10:21:55;13.52;;;5.65;;
21239;SDS011;10778;48.962;9.018;2022-10-29T10:27:22;14.75;;;5.68;;
21239;SDS011;10778;48.962;9.018;2022-10-29T10:32:29;14.20;;;6.20;;
21239;SDS011;10778;48.962;9.018;2022-10-29T10:34:56;15.48;;;5.90;;
21239;SDS011;10778;48.962;9.018;2022-10-29T10:37:22;14.52;;;6.13;;
21239;SDS011;10778;48.962;9.018;2022-10-29T10:39:50;13.65;;;5.88;;
21239;SDS011;10778;48.962;9.018;2022-10-29T10:42:20;12.88;;;5.90;;
21239;SDS011;10778;48.962;9.018;2022-10-29T10:44:51;14.02;;;5.78;;
21239;SDS011;10778;48.962;9.018;2022-10-29T10:47:21;15.27;;;6.30;;
21239;SDS011;10778;48.962;9.018;2022-10-29T10:49:51;15.15;;;5.90;;
21239;SDS011;10778;48.962;9.018;2022-10-29T10:52:23;15.77;;;5.70;;
21239;SDS011;10778;48.962;9.018;2022-10-29T10:54:59;14.63;;;6.07;;
21239;SDS011;10778;48.962;9.018;2022-10-29T10:57:35;12.98;;;5.20;;
21239;SDS011;10778;48.962;9.018;2022-10-29T11:02:56;11.77;;;5.30;;
21239;SDS011;10778;48.962;9.018;2022-10-29T11:05:33;12.23;;;5.38;;
21239;SDS011;10778;48.962;9.018;2022-10-29T11:08:09;14.40;;;5.82;;
21239;SDS011;10778;48.962;9.018;2022-10-29T11:13:30;11.95;;;5.95;;
21239;SDS011;10778;48.962;9.018;2022-10-29T11:21:24;13.95;;;6.13;;
21239;SDS011;10778;48.962;9.018;2022-10-29T11:23:59;17.55;;;6.15;;
21239;SDS011;10778;48.962;9.018;2022-10-29T11:26:29;13.40;;;5.47;;
21239;SDS011;10778;48.962;9.018;2022-10-29T11:34:19;21.85;;;6.70;;
21239;SDS011;10778;48.962;9.018;2022-10-29T11:39:51;14.00;;;5.93;;
21239;SDS011;10778;48.962;9.018;2022-10-29T11:42:23;16.95;;;6.47;;
21239;SDS011;10778;48.962;9.018;2022-10-29T11:44:50;17.48;;;6.65;;
21239;SDS011;10778;48.962;9.018;2022-10-29T11:52:36;17.00;;;6.60;;
21239;SDS011;10778;48.962;9.018;2022-10-29T11:58:05;21.05;;;6.25;;
21239;SDS011;10778;48.962;9.018;2022-10-29T12:03:33;14.40;;;6.30;;
21239;SDS011;10778;48.962;9.018;2022-10-29T12:12:02;16.45;;;5.95;;
21239;SDS011;10778;48.962;9.018;2022-10-29T12:14:29;16.85;;;6.43;;
21239;SDS011;10778;48.962;9.018;2022-10-29T12:22:44;20.40;;;6.30;;
21239;SDS011;10778;48.962;9.018;2022-10-29T12:25:33;13.98;;;5.75;;
21239;SDS011;10778;48.962;9.018;2022-10-29T12:38:54;14.57;;;6.18;;
21239;SDS011;10778;48.962;9.018;2022-10-29T12:43:51;18.10;;;6.18;;
21239;SDS011;10778;48.962;9.018;2022-10-29T12:46:35;14.73;;;6.20;;
21239;SDS011;10778;48.962;9.018;2022-10-29T12:52:48;16.42;;;6.22;;
21239;SDS011;10778;48.962;9.018;2022-10-29T12:55:11;14.93;;;6.45;;
21239;SDS011;10778;48.962;9.018;2022-10-29T12:57:38;15.10;;;6.53;;
21239;SDS011;10778;48.962;9.018;2022-10-29T13:02:55;17.95;;;6.60;;
21239;SDS011;10778;48.962;9.018;2022-10-29T13:15:27;15.98;;;6.60;;
21239;SDS011;10778;48.962;9.018;2022-10-29T13:17:58;17.75;;;5.90;;
21239;SDS011;10778;48.962;9.018;2022-10-29T13:20:34;15.80;;;5.90;;
21239;SDS011;10778;48.962;9.018;2022-10-29T13:23:37;15.50;;;6.28;;
21239;SDS011;10778;48.962;9.018;2022-10-29T13:26:07;16.95;;;5.95;;
21239;SDS011;10778;48.962;9.018;2022-10-29T13:35:58;20.05;;;6.50;;
21239;SDS011;10778;48.962;9.018;2022-10-29T13:43:59;14.13;;;5.78;;
21239;SDS011;10778;48.962;9.018;2022-10-29T13:46:38;13.30;;;5.35;;
21239;SDS011;10778;48.962;9.018;2022-10-29T13:49:08;15.13;;;5.65;;
21239;SDS011;10778;48.962;9.018;2022-10-29T13:51:40;18.13;;;6.53;;
21239;SDS011;10778;48.962;9.018;2022-10-29T13:54:18;16.15;;;6.20;;
21239;SDS011;10778;48.962;9.018;2022-10-29T13:57:16;18.20;;;6.82;;
21239;SDS011;10778;48.962;9.018;2022-10-29T13:59:53;12.43;;;6.45;;
21239;SDS011;10778;48.962;9.018;2022-10-29T14:02:25;14.77;;;6.40;;
21239;SDS011;10778;48.962;9.018;2022-10-29T14:21:00;18.73;;;6.38;;
21239;SDS011;10778;48.962;9.018;2022-10-29T14:23:28;19.23;;;6.50;;
21239;SDS011;10778;48.962;9.018;2022-10-29T14:25:57;18.27;;;6.22;;
21239;SDS011;10778;48.962;9.018;2022-10-29T14:28:32;13.60;;;5.88;;
21239;SDS011;10778;48.962;9.018;2022-10-29T14:33:32;15.73;;;6.22;;
21239;SDS011;10778;48.962;9.018;2022-10-29T14:36:04;14.68;;;5.90;;
21239;SDS011;10778;48.962;9.018;2022-10-29T14:38:48;12.75;;;5.50;;
21239;SDS011;10778;48.962;9.018;2022-10-29T14:41:17;14.50;;;6.20;;
21239;SDS011;10778;48.962;9.018;2022-10-29T14:43:49;22.98;;;7.15;;
21239;SDS011;10778;48.962;9.018;2022-10-29T14:46:22;23.45;;;8.10;;
21239;SDS011;10778;48.962;9.018;2022-10-29T14:51:27;14.13;;;6.70;;
21239;SDS011;10778;48.962;9.018;2022-10-29T14:54:01;17.88;;;6.60;;
21239;SDS011;10778;48.962;9.018;2022-10-29T14:56:31;14.00;;;6.25;;
21239;SDS011;10778;48.962;9.018;2022-10-29T14:59:00;13.60;;;5.82;;
21239;SDS011;10778;48.962;9.018;2022-10-29T15:01:32;14.32;;;6.03;;
21239;SDS011;10778;48.962;9.018;2022-10-29T15:03:58;18.45;;;6.38;;
21239;SDS011;10778;48.962;9.018;2022-10-29T15:06:27;14.77;;;6.40;;
21239;SDS011;10778;48.962;9.018;2022-10-29T15:13:56;15.38;;;6.40;;
21239;SDS011;10778;48.962;9.018;2022-10-29T15:16:23;12.70;;;5.80;;
21239;SDS011;10778;48.962;9.018;2022-10-29T15:18:49;18.30;;;6.70;;
21239;SDS011;10778;48.962;9.018;2022-10-29T15:21:25;13.88;;;5.97;;
21239;SDS011;10778;48.962;9.018;2022-10-29T15:23:55;15.93;;;6.57;;
21239;SDS011;10778;48.962;9.018;2022-10-29T15:26:25;13.23;;;5.95;;
21239;SDS011;10778;48.962;9.018;2022-10-29T15:28:52;14.57;;;5.90;;
21239;SDS011;10778;48.962;9.018;2022-10-29T15:31:28;15.02;;;6.45;;
21239;SDS011;10778;48.962;9.018;2022-10-29T15:34:01;21.67;;;6.95;;
21239;SDS011;10778;48.962;9.018;2022-10-29T15:36:46;17.83;;;6.30;;
21239;SDS011;10778;48.962;9.018;2022-10-29T15:41:48;13.57;;;6.28;;
21239;SDS011;10778;48.962;9.018;2022-10-29T15:44:31;18.63;;;6.43;;
21239;SDS011;10778;48.962;9.018;2022-10-29T15:47:17;14.75;;;6.30;;
21239;SDS011;10778;48.962;9.018;2022-10-29T15:49:45;14.73;;;6.68;;
21239;SDS011;10778;48.962;9.018;2022-10-29T15:52:13;13.00;;;6.97;;
21239;SDS011;10778;48.962;9.018;2022-10-29T15:54:42;13.55;;;6.95;;
21239;SDS011;10778;48.962;9.018;2022-10-29T15:57:09;16.58;;;7.95;;
21239;SDS011;10778;48.962;9.018;2022-10-29T15:59:38;14.80;;;9.10;;
21239;SDS011;10778;48.962;9.018;2022-10-29T16:02:11;21.50;;;8.85;;
21239;SDS011;10778;48.962;9.018;2022-10-29T16:04:39;18.90;;;7.15;;
21239;SDS011;10778;48.962;9.018;2022-10-29T16:07:07;15.90;;;7.18;;
21239;SDS011;10778;48.962;9.018;2022-10-29T16:09:36;18.30;;;6.82;;
21239;SDS011;10778;48.962;9.018;2022-10-29T16:12:04;12.50;;;6.63;;
21239;SDS011;10778;48.962;9.018;2022-10-29T16:14:30;14.73;;;6.60;;
21239;SDS011;10778;48.962;9.018;2022-10-29T16:16:56;13.50;;;6.30;;
21239;SDS011;10778;48.962;9.018;2022-10-29T16:19:22;12.43;;;6.43;;
21239;SDS011;10778;48.962;9.018;2022-10-29T16:21:48;11.65;;;6.30;;
21239;SDS011;10778;48.962;9.018;2022-10-29T16:24:14;16.00;;;6.30;;
21239;SDS011;10778;48.962;9.018;2022-10-29T16:26:40;14.13;;;6.03;;
21239;SDS011;10778;48.962;9.018;2022-10-29T16:29:06;15.77;;;7.47;;
21239;SDS011;10778;48.962;9.018;2022-10-29T16:31:32;12.07;;;6.82;;
21239;SDS011;10778;48.962;9.018;2022-10-29T16:34:00;13.25;;;6.90;;
21239;SDS011;10778;48.962;9.018;2022-10-29T16:36:29;15.65;;;7.10;;
21239;SDS011;10778;48.962;9.018;2022-10-29T16:38:55;16.30;;;6.32;;
21239;SDS011;10778;48.962;9.018;2022-10-29T16:41:21;12.18;;;6.38;;
21239;SDS011;10778;48.962;9.018;2022-10-29T16:43:47;18.58;;;7.47;;
21239;SDS011;10778;48.962;9.018;2022-10-29T16:46:13;16.17;;;7.20;;
21239;SDS011;10778;48.962;9.018;2022-10-29T16:48:39;14.27;;;6.78;;
21239;SDS011;10778;48.962;9.018;2022-10-29T16:51:06;18.70;;;7.80;;
21239;SDS011;10778;48.962;9.018;2022-10-29T16:53:32;21.55;;;7.32;;
21239;SDS011;10778;48.962;9.018;2022-10-29T16:55:58;14.77;;;6.85;;
21239;SDS011;10778;48.962;9.018;2022-10-29T16:58:26;19.42;;;6.82;;
21239;SDS011;10778;48.962;9.018;2022-10-29T17:01:00;16.08;;;6.70;;
21239;SDS011;10778;48.962;9.018;2022-10-29T17:03:29;13.68;;;6.55;;
21239;SDS011;10778;48.962;9.018;2022-10-29T17:06:01;12.77;;;6.30;;
21239;SDS011;10778;48.962;9.018;2022-10-29T17:08:29;15.43;;;6.88;;
21239;SDS011;10778;48.962;9.018;2022-10-29T17:10:57;15.48;;;6.45;;
21239;SDS011;10778;48.962;9.018;2022-10-29T17:13:24;14.10;;;6.53;;
21239;SDS011;10778;48.962;9.018;2022-10-29T17:15:50;14.15;;;6.55;;
21239;SDS011;10778;48.962;9.018;2022-10-29T17:18:16;14.95;;;6.28;;
21239;SDS011;10778;48.962;9.018;2022-10-29T17:20:42;17.60;;;6.90;;
21239;SDS011;10778;48.962;9.018;2022-10-29T17:23:18;11.95;;;6.30;;
21239;SDS011;10778;48.962;9.018;2022-10-29T17:25:44;13.60;;;6.03;;
21239;SDS011;10778;48.962;9.018;2022-10-29T17:28:10;17.13;;;6.68;;
21239;SDS011;10778;48.962;9.018;2022-10-29T17:30:38;11.82;;;6.63;;
21239;SDS011;10778;48.962;9.018;2022-10-29T17:33:04;12.25;;;6.25;;
21239;SDS011;10778;48.962;9.018;2022-10-29T17:35:30;16.38;;;6.90;;
21239;SDS011;10778;48.962;9.018;2022-10-29T17:37:56;19.00;;;6.82;;